createdAt,value
2019-02-12T00:00:11.626Z,99053.00
2019-02-12T00:04:25.342Z,99065.00
2019-02-12T00:08:39.896Z,99080.00
2019-02-12T00:12:54.477Z,99101.00
2019-02-12T00:17:09.081Z,99109.00
2019-02-12T00:21:23.580Z,99110.00
2019-02-12T00:25:38.446Z,99120.00
2019-02-12T00:29:53.185Z,99105.00
2019-02-12T00:33:54.175Z,99097.00
2019-02-12T00:38:14.925Z,99090.00
2019-02-12T00:42:35.688Z,99089.00
2019-02-12T00:46:56.448Z,99087.00
2019-02-12T00:51:18.018Z,99091.00
2019-02-12T00:55:39.996Z,99094.00
2019-02-12T01:00:00.725Z,99109.00
2019-02-12T01:04:15.287Z,99100.00
2019-02-12T01:08:29.740Z,99110.00
2019-02-12T01:12:44.254Z,99103.00
2019-02-12T01:16:58.991Z,99108.00
2019-02-12T01:21:13.616Z,99114.00
2019-02-12T01:25:27.539Z,99122.00
2019-02-12T01:29:41.426Z,99125.00
2019-02-12T01:33:55.840Z,99123.00
2019-02-12T01:38:10.481Z,99125.00
2019-02-12T01:42:25.041Z,99118.00
2019-02-12T01:46:39.614Z,99138.00
2019-02-12T01:50:54.054Z,99132.00
2019-02-12T01:54:54.949Z,99143.00
2019-02-12T01:59:15.670Z,99126.00
2019-02-12T02:03:29.549Z,99130.00
2019-02-12T02:07:44.295Z,99131.00
2019-02-12T02:11:58.919Z,99129.00
2019-02-12T02:16:13.510Z,99129.00
2019-02-12T02:20:14.506Z,99129.00
2019-02-12T02:24:35.239Z,99134.00
2019-02-12T02:28:36.115Z,99143.00
2019-02-12T02:32:56.895Z,99129.00
2019-02-12T02:37:17.678Z,99145.00
2019-02-12T02:41:38.414Z,99150.00
2019-02-12T02:45:59.165Z,99156.00
2019-02-12T02:50:19.901Z,99158.00
2019-02-12T02:54:41.126Z,99155.00
2019-02-12T02:59:01.912Z,99166.00
2019-02-12T03:03:16.640Z,99171.00
2019-02-12T03:07:30.956Z,99181.00
2019-02-12T03:11:45.435Z,99183.00
2019-02-12T03:16:00.092Z,99190.00
2019-02-12T03:20:14.838Z,99185.00
2019-02-12T03:24:28.911Z,99199.00
2019-02-12T03:28:43.581Z,99198.00
2019-02-12T03:32:57.334Z,99206.00
2019-02-12T03:37:11.831Z,99205.00
2019-02-12T03:41:26.395Z,99205.00
2019-02-12T03:45:40.976Z,99194.00
2019-02-12T03:49:54.846Z,99200.00
2019-02-12T03:54:08.793Z,99188.00
2019-02-12T03:58:23.463Z,99174.00
2019-02-12T04:02:37.339Z,99179.00
2019-02-12T04:06:51.932Z,99188.00
2019-02-12T04:11:06.185Z,99189.00
2019-02-12T04:15:20.890Z,99192.00
2019-02-12T04:19:21.768Z,99207.00
2019-02-12T04:23:42.614Z,99203.00
2019-02-12T04:28:03.383Z,99186.00
2019-02-12T04:32:24.144Z,99186.00
2019-02-12T04:36:44.930Z,99183.00
2019-02-12T04:41:05.644Z,99179.00
2019-02-12T04:45:26.380Z,99180.00
2019-02-12T04:49:47.120Z,99192.00
2019-02-12T04:54:07.964Z,99203.00
2019-02-12T04:58:28.717Z,99205.00
2019-02-12T05:02:42.645Z,99208.00
2019-02-12T05:06:57.173Z,99214.00
2019-02-12T05:11:11.043Z,99215.00
2019-02-12T05:15:25.569Z,99217.00
2019-02-12T05:19:40.283Z,99216.00
2019-02-12T05:23:55.008Z,99214.00
2019-02-12T05:27:56.002Z,99222.00
2019-02-12T05:31:56.864Z,99214.00
2019-02-12T05:36:17.819Z,99221.00
2019-02-12T05:40:18.697Z,98947.00
2019-02-12T05:44:39.691Z,99220.00
2019-02-12T05:48:40.755Z,99216.00
2019-02-12T05:52:41.695Z,99213.00
2019-02-12T05:57:02.599Z,99209.00
2019-02-12T06:01:23.405Z,99209.00
2019-02-12T06:05:44.347Z,99205.00
2019-02-12T06:09:45.240Z,99215.00
2019-02-12T06:14:06.108Z,99213.00
2019-02-12T06:18:26.808Z,99227.00
2019-02-12T06:22:47.770Z,99237.00
2019-02-12T06:27:08.597Z,99246.00
2019-02-12T06:31:29.354Z,99244.00
2019-02-12T06:35:50.183Z,99242.00
2019-02-12T06:40:11.032Z,99250.00
2019-02-12T06:44:31.908Z,99265.00
2019-02-12T06:48:52.653Z,99261.00
2019-02-12T06:53:13.402Z,99265.00
2019-02-12T06:57:34.159Z,99278.00
2019-02-12T07:01:35.051Z,99280.00
2019-02-12T07:05:49.238Z,99280.00
2019-02-12T07:10:03.078Z,99285.00
2019-02-12T07:14:17.619Z,99291.00
2019-02-12T07:18:32.328Z,99287.00
2019-02-12T07:22:46.252Z,99305.00
2019-02-12T07:27:00.864Z,99314.00
2019-02-12T07:31:15.454Z,99322.00
2019-02-12T07:35:29.958Z,99329.00
2019-02-12T07:39:43.677Z,99341.00
2019-02-12T07:43:58.299Z,99349.00
2019-02-12T07:48:12.918Z,99360.00
2019-02-12T07:52:53.546Z,99360.00
2019-02-12T07:57:34.159Z,99363.00
2019-02-12T08:01:48.812Z,99378.00
2019-02-12T08:06:29.533Z,99382.00
2019-02-12T08:11:10.167Z,99389.00
2019-02-12T08:15:50.862Z,99385.00
2019-02-12T08:20:31.487Z,99384.00
2019-02-12T08:25:12.080Z,99394.00
2019-02-12T08:29:52.781Z,99399.00
2019-02-12T08:34:35.290Z,99408.00
2019-02-12T08:39:15.964Z,99401.00
2019-02-12T08:43:58.490Z,99406.00
2019-02-12T08:48:41.046Z,99423.00
2019-02-12T08:53:21.744Z,99431.00
2019-02-12T08:58:02.472Z,99428.00
2019-02-12T09:02:43.222Z,99425.00
2019-02-12T09:07:23.832Z,99424.00
2019-02-12T09:12:06.339Z,99432.00
2019-02-12T09:16:47.051Z,99430.00
2019-02-12T09:21:27.623Z,99430.00
2019-02-12T09:26:10.142Z,99433.00
2019-02-12T09:30:50.760Z,99437.00
2019-02-12T09:35:33.294Z,99439.00
2019-02-12T09:40:19.267Z,99440.00
2019-02-12T09:44:58.416Z,99458.00
2019-02-12T09:49:39.016Z,99450.00
2019-02-12T09:54:21.540Z,99445.00
2019-02-12T09:59:02.252Z,99447.00
2019-02-12T10:03:16.033Z,99456.00
2019-02-12T10:07:30.748Z,99464.00
2019-02-12T10:11:45.396Z,99463.00
2019-02-12T10:16:28.026Z,99476.00
2019-02-12T10:21:08.747Z,99486.00
2019-02-12T10:25:29.647Z,99480.00
2019-02-12T10:30:10.251Z,99490.00
2019-02-12T10:34:31.111Z,99492.00
2019-02-12T10:38:51.812Z,99500.00
2019-02-12T10:43:12.570Z,99504.00
2019-02-12T10:47:33.300Z,99499.00
2019-02-12T10:51:54.132Z,99503.00
2019-02-12T10:56:14.879Z,99507.00
2019-02-12T11:00:35.856Z,99509.00
2019-02-12T11:04:49.846Z,99515.00
2019-02-12T11:09:04.081Z,99524.00
2019-02-12T11:13:18.157Z,99510.00
2019-02-12T11:17:32.600Z,99513.00
2019-02-12T11:21:47.401Z,99515.00
2019-02-12T11:26:01.889Z,99509.00
2019-02-12T11:30:16.269Z,99517.00
2019-02-12T11:34:31.081Z,99523.00
2019-02-12T11:38:45.682Z,99517.00
2019-02-12T11:43:00.255Z,99525.00
2019-02-12T11:47:14.077Z,99511.00
2019-02-12T11:51:15.272Z,99509.00
2019-02-12T11:55:36.035Z,99496.00
2019-02-12T11:59:57.002Z,99507.00
2019-02-12T12:04:11.640Z,99502.00
2019-02-12T12:08:26.426Z,99506.00
2019-02-12T12:12:40.866Z,99517.00
2019-02-12T12:16:55.371Z,99513.00
2019-02-12T12:21:09.168Z,99511.00
2019-02-12T12:25:25.265Z,99513.00
2019-02-12T12:29:26.250Z,99501.00
2019-02-12T12:33:47.209Z,99507.00
2019-02-12T12:38:08.081Z,99504.00
2019-02-12T12:42:28.981Z,99505.00
2019-02-12T12:46:49.749Z,99507.00
2019-02-12T12:51:10.678Z,99505.00
2019-02-12T13:00:00.799Z,99514.00
2019-02-12T13:04:14.994Z,99509.00
2019-02-12T13:08:29.451Z,99511.00
2019-02-12T13:12:43.826Z,99513.00
2019-02-12T13:16:58.491Z,99526.00
2019-02-12T13:21:13.321Z,99515.00
2019-02-12T13:25:27.983Z,99513.00
2019-02-12T13:29:42.707Z,99520.00
2019-02-12T13:33:57.383Z,99517.00
2019-02-12T13:38:11.678Z,99525.00
2019-02-12T13:42:12.590Z,99511.00
2019-02-12T13:46:33.339Z,99525.00
2019-02-12T13:50:54.048Z,99522.00
2019-02-12T13:55:17.255Z,99520.00
2019-02-12T13:59:37.525Z,99517.00
2019-02-12T14:03:52.006Z,99516.00
2019-02-12T14:08:06.435Z,99530.00
2019-02-12T14:12:21.164Z,99531.00
2019-02-12T14:16:35.923Z,99533.00
2019-02-12T14:25:06.224Z,99529.00
2019-02-12T14:29:24.545Z,99525.00
2019-02-12T14:33:39.234Z,99524.00
2019-02-12T14:37:40.145Z,99523.00
2019-02-12T14:42:00.859Z,99525.00
2019-02-12T14:46:21.631Z,99525.00
2019-02-12T14:50:42.395Z,99523.00
2019-02-12T14:55:03.338Z,99529.00
2019-02-12T14:59:24.125Z,99542.00
2019-02-12T15:03:38.254Z,99535.00
2019-02-12T15:07:53.059Z,99540.00
2019-02-12T15:12:07.546Z,99536.00
2019-02-12T15:16:22.303Z,99538.00
2019-02-12T15:20:40.518Z,99548.00
2019-02-12T15:24:54.655Z,99537.00
2019-02-12T15:28:55.783Z,99547.00
2019-02-12T15:33:16.514Z,99550.00
2019-02-12T15:37:37.408Z,99547.00
2019-02-12T15:41:58.165Z,99543.00
2019-02-12T15:45:59.060Z,99538.00
2019-02-12T15:50:19.918Z,99550.00
2019-02-12T15:54:40.646Z,99536.00
2019-02-12T15:59:03.035Z,99548.00
2019-02-12T16:03:18.378Z,99550.00
2019-02-12T16:07:22.312Z,99549.00
2019-02-12T16:11:44.107Z,99557.00
2019-02-12T16:16:05.731Z,99567.00
2019-02-12T16:20:29.093Z,99567.00
2019-02-12T16:24:50.504Z,99575.00
2019-02-12T16:29:11.273Z,99580.00
2019-02-12T16:33:32.030Z,99580.00
2019-02-12T16:37:33.047Z,99584.00
2019-02-12T16:41:53.934Z,99589.00
2019-02-12T16:46:16.074Z,99588.00
2019-02-12T16:50:36.927Z,99599.00
2019-02-12T16:54:57.688Z,99593.00
2019-02-12T16:59:18.448Z,99604.00
2019-02-12T17:03:32.476Z,99616.00
2019-02-12T17:07:47.163Z,99619.00
2019-02-12T17:12:01.624Z,99624.00
2019-02-12T17:16:15.399Z,99632.00
2019-02-12T17:20:29.434Z,99632.00
2019-02-12T17:24:43.969Z,99629.00
2019-02-12T17:28:58.319Z,99636.00
2019-02-12T17:33:12.878Z,99632.00
2019-02-12T17:37:27.633Z,99645.00
2019-02-12T17:41:42.296Z,99649.00
2019-02-12T17:45:56.111Z,99650.00
2019-02-12T17:50:10.419Z,99648.00
2019-02-12T17:54:25.066Z,99665.00
2019-02-12T17:58:39.703Z,99662.00
2019-02-12T18:02:54.264Z,99660.00
2019-02-12T18:07:08.108Z,99660.00
2019-02-12T18:11:22.033Z,99667.00
2019-02-12T18:15:35.858Z,99663.00
2019-02-12T18:19:50.328Z,99672.00
2019-02-12T18:24:07.363Z,99670.00
2019-02-12T18:28:21.713Z,99673.00
2019-02-12T18:32:36.282Z,99676.00
2019-02-12T18:36:50.678Z,99668.00
2019-02-12T18:40:51.699Z,99683.00
2019-02-12T18:44:52.608Z,99678.00
2019-02-12T18:49:13.413Z,99682.00
2019-02-12T18:53:14.712Z,99680.00
2019-02-12T18:57:15.736Z,99680.00
2019-02-12T19:01:37.187Z,99687.00
2019-02-12T19:05:38.064Z,99684.00
2019-02-12T19:09:59.545Z,99685.00
2019-02-12T19:14:20.748Z,99683.00
2019-02-12T19:23:10.999Z,99675.00
2019-02-12T19:27:31.804Z,99674.00
2019-02-12T19:31:32.702Z,99674.00
2019-02-12T19:35:53.606Z,99673.00
2019-02-12T19:40:14.389Z,99681.00
2019-02-12T19:44:35.157Z,99675.00
2019-02-12T19:48:56.023Z,99677.00
2019-02-12T19:53:16.857Z,99678.00
2019-02-12T19:57:37.808Z,99676.00
2019-02-12T20:01:38.715Z,99675.00
2019-02-12T20:05:52.686Z,99664.00
2019-02-12T20:10:07.469Z,99668.00
2019-02-12T20:14:21.848Z,99676.00
2019-02-12T20:18:36.160Z,99676.00
2019-02-12T20:22:50.630Z,99668.00
2019-02-12T20:27:06.776Z,99679.00
2019-02-12T20:31:08.871Z,99678.00
2019-02-12T20:35:36.268Z,99679.00
2019-02-12T20:39:33.001Z,99683.00
2019-02-12T20:43:54.247Z,99673.00
2019-02-12T20:48:15.182Z,99671.00
2019-02-12T20:52:36.281Z,99686.00
2019-02-12T20:56:57.286Z,99690.00
2019-02-12T21:01:18.081Z,99693.00
2019-02-12T21:05:32.153Z,99690.00
2019-02-12T21:09:46.635Z,99703.00
2019-02-12T21:14:01.240Z,99692.00
2019-02-12T21:18:15.428Z,99686.00
2019-02-12T21:22:30.090Z,99689.00
2019-02-12T21:26:47.151Z,99678.00
2019-02-12T21:31:01.190Z,99693.00
2019-02-12T21:35:16.699Z,99701.00
2019-02-12T21:39:31.618Z,99708.00
2019-02-12T21:43:32.648Z,99701.00
2019-02-12T21:47:53.402Z,99699.00
2019-02-12T21:52:14.384Z,99691.00
2019-02-12T21:56:35.307Z,99688.00
2019-02-12T22:00:56.145Z,99685.00
2019-02-12T22:05:11.246Z,99695.00
2019-02-12T22:09:12.634Z,99688.00
2019-02-12T22:13:33.544Z,99693.00
2019-02-12T22:17:34.810Z,99697.00
2019-02-12T22:22:15.524Z,99690.00
2019-02-12T22:26:36.292Z,99693.00
2019-02-12T22:30:37.181Z,99691.00
2019-02-12T22:34:38.057Z,99691.00
2019-02-12T22:38:58.899Z,99690.00
2019-02-12T22:43:19.620Z,99700.00
2019-02-12T22:47:40.531Z,99705.00
2019-02-12T22:52:01.384Z,99700.00
2019-02-12T22:56:22.155Z,99714.00
2019-02-12T23:01:02.769Z,99726.00
2019-02-12T23:05:17.191Z,99619.00
2019-02-12T23:09:31.924Z,99713.00
2019-02-12T23:13:46.416Z,99716.00
2019-02-12T23:18:01.048Z,99724.00
2019-02-12T23:22:15.765Z,99717.00
2019-02-12T23:26:30.444Z,99706.00
2019-02-12T23:30:45.017Z,99717.00
2019-02-12T23:34:58.940Z,99709.00
2019-02-12T23:39:13.648Z,99706.00
2019-02-12T23:43:28.118Z,99711.00
2019-02-12T23:47:41.896Z,99717.00
2019-02-12T23:51:55.735Z,99723.00
2019-02-12T23:56:12.146Z,99719.00
